Asherville, Indiana
Current Conditions -  °F | °C
As of 8:53 AM on Monday 20 Oct 2014 (Local Time) from KHUF Reporting Station
Broken Clouds Broken Clouds  
Wind Chill: 51°   Ceiling: 9000
Heat Index: 51°   Visibility: 10mi
Dew Point: 46°   Wind: 10mph
Humidity: 83%   Direction: 200°SSW
Pressure: 29.94"   Gusts: NA
Location:  39.5158°N, 87.1262°W
Report Text: KHUF 201253Z 20009KT 10SM BKN090 BKN110 11/08 A2994 RMK AO2 SLP140 T01060078
Loading
Personal Weather Stations






























Interactive Weather Map
Tropical Storm Tracking
New forecast layout! Learn more

10-Day Weather Forecast

Advertisements
Track Severe Weather on mobile